Hasanuddin International Airport
WAAA : now visible

Airfield :











YOU CAN JOIN US ON...

 
LOGIN :

Register | Disclaimer

   EN    FR    IT 

 









Legend :    VFR   Marginal VFR   IFR   Intensive IFR   Very Intensive IFR
Visi :
Ceiling :
>= 8 km
>= 3000ft
5 to 8 km
1000 to 3000 ft
1500m to 5 km
500 to 1000 ft
800 to 1500m
200 to 500 ft
< 800m
< 200 ft
Symbols :   Thunderstorms  Fog  Heavy snow  Heavy precipitations  Wind > 20 kt






- Airport Elevation : 47 ft
- IATA code : UPG


WAAA - Hasanuddin International

CURRENT METAR :
  • 191100Z 09003KT 8000 FEW020 29/24 Q1008 NOSIG

EXPIRED METARs :
  • 191030Z 03006KT 8000 FEW020 30/23 Q1007 NOSIG
  • 191000Z 02005KT 340V040 9999 SCT020 31/24 Q1007 NOSIG
  • 190930Z 09006KT 030V130 9999 SCT020 32/24 Q1007 NOSIG
  • 190900Z 26006KT 230V320 9999 SCT020 33/23 Q1007 NOSIG
  • 190830Z 26007KT 230V300 9999 FEW020 33/23 Q1007 NOSIG
  • 190800Z 27009KT 220V330 9999 FEW019 34/23 Q1007 NOSIG

TAF TAF WAAA
Valid from the 19 at 06:00 until the 20 at 12:00 UTC


190500Z 1906/2012 05010KT 9999 SCT020
BECMG 1916/1918 21005KT
WAAF FIR / Asia



MET'MAP, your aeronautical weather chart ! - Copyright ORBIFLY December 2007 - Disclaimer

ORBIFLY MET'MAP TEAM :

Programming & Development : Alexandra Zaïnal
Concept & original design : Baudouin d'Aumeries
Assistance for programming : Marc-Olivier Méhu
Technical & hardware support : Manuel Goepfert

Contact : metmap@orbifly.com




SOURCES & CREDITS :

   NOAA       Earth
Advisory